Time;durP1;ratioP1;P1;durP2;ratioP2;P2;SDS_P1;SDS_P2;PMS_P1;PMS_P2;Temp;Humidity;BMP_temperature;BMP_pressure;BME280_temperature;BME280_humidity;BME280_pressure;Samples;Min_cycle;Max_cycle;Signal;HPM_P1;HPM_P2
2023/03/25 00:00:16;;;;;;;7.45;0.80;;;8.50;99.90;;;;;;6127162;23;20458;-68
2023/03/25 00:02:43;;;;;;;0.30;0.30;;;8.40;99.90;;;;;;6126712;23;20131;-68
2023/03/25 00:05:11;;;;;;;0.40;0.40;;;8.50;99.90;;;;;;6126762;23;20211;-68
2023/03/25 00:07:37;;;;;;;0.38;0.38;;;8.40;99.90;;;;;;6126517;23;20199;-68
2023/03/25 00:10:03;;;;;;;0.33;0.33;;;8.50;99.90;;;;;;6126581;23;20154;-69
2023/03/25 00:12:29;;;;;;;0.30;0.30;;;8.50;99.90;;;;;;6126670;23;20371;-69
2023/03/25 00:14:57;;;;;;;0.40;0.40;;;8.50;99.90;;;;;;6126524;23;20374;-68
2023/03/25 00:17:27;;;;;;;1.35;1.13;;;8.40;99.90;;;;;;6126538;23;20151;-67
2023/03/25 00:20:04;;;;;;;0.30;0.30;;;8.50;99.90;;;;;;6100656;23;20152;-69
2023/03/25 00:22:30;;;;;;;0.40;0.40;;;8.50;99.90;;;;;;6126208;23;20171;-68
2023/03/25 00:24:55;;;;;;;0.40;0.40;;;8.20;99.90;;;;;;6126746;23;20483;-68
2023/03/25 00:27:21;;;;;;;0.40;0.40;;;8.10;99.90;;;;;;6126758;23;20147;-68
2023/03/25 00:29:47;;;;;;;1.40;1.30;;;8.20;99.90;;;;;;6126528;23;20151;-68
2023/03/25 00:32:14;;;;;;;0.37;0.37;;;8.20;99.90;;;;;;6126261;23;20148;-67
2023/03/25 00:34:45;;;;;;;0.52;0.52;;;8.20;99.90;;;;;;6126363;23;20189;-69
2023/03/25 00:37:12;;;;;;;0.30;0.30;;;8.00;99.90;;;;;;6126394;23;20132;-67
2023/03/25 00:39:38;;;;;;;0.30;0.30;;;7.80;99.90;;;;;;6126483;23;20178;-68
2023/03/25 00:42:04;;;;;;;0.87;0.70;;;7.70;99.90;;;;;;6126438;23;20173;-68
2023/03/25 00:44:30;;;;;;;0.50;0.50;;;7.80;99.90;;;;;;6126411;23;20251;-69
2023/03/25 00:46:55;;;;;;;0.30;0.30;;;8.00;99.90;;;;;;6126379;23;20169;-68
2023/03/25 00:49:23;;;;;;;0.37;0.37;;;8.10;99.90;;;;;;6126281;23;20409;-68
2023/03/25 00:51:50;;;;;;;0.30;0.30;;;8.00;99.90;;;;;;6126161;23;20183;-67
2023/03/25 00:54:17;;;;;;;0.30;0.30;;;7.90;99.90;;;;;;6126523;23;20231;-67
2023/03/25 00:56:43;;;;;;;0.43;0.43;;;8.00;99.90;;;;;;6126360;23;20548;-67
2023/03/25 00:59:09;;;;;;;0.30;0.30;;;8.00;99.90;;;;;;6126296;23;20202;-69
2023/03/25 01:01:38;;;;;;;0.43;0.43;;;8.10;99.90;;;;;;6126302;23;20756;-69
2023/03/25 01:04:11;;;;;;;0.50;0.50;;;8.00;99.90;;;;;;6126385;23;20598;-68
2023/03/25 01:06:45;;;;;;;20.42;0.93;;;8.20;99.90;;;;;;6126397;23;20136;-68
2023/03/25 01:09:13;;;;;;;2.65;1.45;;;8.20;99.90;;;;;;6126315;23;20251;-68
2023/03/25 01:11:41;;;;;;;0.50;0.40;;;8.20;99.90;;;;;;6126086;23;20486;-68
2023/03/25 01:14:11;;;;;;;0.70;0.40;;;8.10;99.90;;;;;;6126236;23;20532;-68
2023/03/25 01:16:38;;;;;;;0.50;0.50;;;8.10;99.90;;;;;;6126286;23;20214;-68
2023/03/25 01:19:04;;;;;;;0.30;0.30;;;8.00;99.90;;;;;;6126170;23;20172;-69
2023/03/25 01:21:32;;;;;;;0.40;0.40;;;8.00;99.90;;;;;;6126078;23;20168;-68
2023/03/25 01:23:58;;;;;;;0.40;0.40;;;7.80;99.90;;;;;;6126051;23;20372;-68
2023/03/25 01:26:24;;;;;;;0.70;0.67;;;7.90;99.90;;;;;;6126336;23;20154;-69
2023/03/25 01:28:50;;;;;;;0.30;0.30;;;8.00;99.90;;;;;;6128103;23;20254;-68
2023/03/25 01:31:15;;;;;;;0.37;0.37;;;8.10;99.90;;;;;;6102082;23;20201;-68
2023/03/25 01:33:41;;;;;;;0.40;0.40;;;8.00;99.90;;;;;;6127700;23;20423;-68
2023/03/25 01:36:08;;;;;;;0.40;0.40;;;8.00;99.90;;;;;;6127945;23;20155;-68
2023/03/25 01:38:35;;;;;;;0.30;0.30;;;8.00;99.90;;;;;;6127851;23;20700;-68
2023/03/25 01:41:02;;;;;;;0.50;0.50;;;8.00;99.90;;;;;;6127942;23;20152;-69
2023/03/25 01:43:28;;;;;;;0.30;0.30;;;7.90;99.90;;;;;;6127747;23;20155;-69
2023/03/25 01:45:53;;;;;;;0.30;0.30;;;7.80;99.90;;;;;;6127863;23;20186;-67
2023/03/25 01:48:21;;;;;;;5.10;0.97;;;7.60;99.90;;;;;;6127766;23;20497;-67
2023/03/25 01:50:59;;;;;;;0.30;0.30;;;7.60;99.90;;;;;;6127804;23;20159;-68
2023/03/25 01:53:29;;;;;;;0.30;0.30;;;7.80;99.90;;;;;;6127617;23;20177;-68
2023/03/25 01:55:55;;;;;;;6.72;2.05;;;8.00;99.90;;;;;;6127769;23;20471;-68
2023/03/25 01:58:23;;;;;;;0.52;0.52;;;8.00;99.90;;;;;;6127644;23;20564;-68
2023/03/25 02:00:50;;;;;;;0.40;0.40;;;7.90;99.90;;;;;;6128066;23;20148;-68
2023/03/25 02:03:19;;;;;;;0.40;0.40;;;7.90;99.90;;;;;;6127587;23;20159;-68
2023/03/25 02:06:06;;;;;;;1.55;1.52;;;7.90;99.90;;;;;;6127757;23;20546;-69
2023/03/25 02:08:40;;;;;;;0.65;0.50;;;7.80;99.90;;;;;;6127543;23;20248;-68
2023/03/25 02:11:07;;;;;;;2.45;0.85;;;7.80;99.90;;;;;;6128025;23;20194;-67
2023/03/25 02:13:35;;;;;;;0.30;0.30;;;7.80;99.90;;;;;;6127415;23;20182;-68
2023/03/25 02:16:00;;;;;;;0.45;0.45;;;7.60;99.90;;;;;;6127645;23;20484;-67
2023/03/25 02:18:30;;;;;;;0.30;0.30;;;7.50;99.90;;;;;;6127541;23;20246;-68
2023/03/25 02:21:32;;;;;;;0.85;0.40;;;7.40;99.90;;;;;;6127569;23;20533;-68
2023/03/25 02:24:12;;;;;;;0.40;0.40;;;7.50;99.90;;;;;;6127271;23;20143;-67
2023/03/25 02:27:25;;;;;;;0.63;0.63;;;7.40;99.90;;;;;;6127727;23;20473;-68
2023/03/25 02:30:35;;;;;;;0.40;0.40;;;7.50;99.90;;;;;;6127393;23;20149;-67
2023/03/25 02:33:10;;;;;;;0.30;0.30;;;7.40;99.90;;;;;;6107864;23;20519;-67
2023/03/25 02:35:48;;;;;;;0.40;0.40;;;6.80;99.90;;;;;;6127452;23;20133;-68
2023/03/25 02:38:35;;;;;;;0.40;0.40;;;6.60;99.90;;;;;;6127337;23;20169;-68
2023/03/25 02:41:09;;;;;;;0.30;0.30;;;6.60;99.90;;;;;;6127317;23;20133;-68
2023/03/25 02:43:52;;;;;;;0.35;0.35;;;6.40;99.90;;;;;;6127301;23;20137;-68
2023/03/25 02:46:18;;;;;;;0.50;0.50;;;6.30;99.90;;;;;;6127299;23;20133;-68
2023/03/25 02:48:55;;;;;;;0.40;0.40;;;6.30;99.90;;;;;;6127505;23;20205;-68
2023/03/25 02:51:27;;;;;;;0.40;0.40;;;6.30;99.90;;;;;;6101323;23;20146;-68
2023/03/25 02:53:55;;;;;;;0.40;0.40;;;6.30;99.90;;;;;;6127085;23;20170;-67
2023/03/25 02:56:24;;;;;;;0.82;0.50;;;6.10;99.90;;;;;;6127213;23;20518;-68
2023/03/25 02:58:54;;;;;;;0.40;0.40;;;5.90;99.90;;;;;;6127114;23;20247;-68
2023/03/25 03:01:25;;;;;;;0.30;0.30;;;5.90;99.90;;;;;;6127170;23;20568;-68
2023/03/25 03:03:54;;;;;;;21.63;1.52;;;5.90;99.90;;;;;;6127074;23;20622;-67
2023/03/25 03:06:21;;;;;;;0.40;0.40;;;5.80;99.90;;;;;;6127132;23;20235;-68
2023/03/25 03:08:55;;;;;;;0.40;0.40;;;5.80;99.90;;;;;;6127036;23;20173;-68
2023/03/25 03:11:24;;;;;;;0.30;0.30;;;5.80;99.90;;;;;;6127058;23;20139;-68
2023/03/25 03:14:13;;;;;;;0.40;0.40;;;5.70;99.90;;;;;;6126682;23;20212;-67
2023/03/25 03:16:59;;;;;;;0.38;0.38;;;5.80;99.90;;;;;;6127098;23;20136;-67
2023/03/25 03:19:39;;;;;;;0.32;0.32;;;5.80;99.90;;;;;;6127017;23;20239;-67
2023/03/25 03:22:20;;;;;;;0.40;0.40;;;5.80;99.90;;;;;;6127091;23;20211;-68
2023/03/25 03:25:18;;;;;;;0.40;0.40;;;5.70;99.90;;;;;;6126925;23;20231;-68
2023/03/25 03:27:57;;;;;;;0.40;0.40;;;5.80;99.90;;;;;;6126834;23;20176;-66
2023/03/25 03:30:32;;;;;;;0.30;0.30;;;5.90;99.90;;;;;;6127013;23;20137;-68
2023/03/25 03:33:24;;;;;;;0.52;0.52;;;5.80;99.90;;;;;;6126758;23;20173;-68
2023/03/25 03:36:12;;;;;;;0.40;0.40;;;5.80;99.90;;;;;;6126979;23;20137;-67
2023/03/25 03:38:43;;;;;;;0.35;0.35;;;5.80;99.90;;;;;;6127280;23;20607;-68
2023/03/25 03:41:15;;;;;;;0.30;0.30;;;5.70;99.90;;;;;;6126861;23;20201;-68
2023/03/25 03:43:56;;;;;;;0.30;0.30;;;5.80;99.90;;;;;;6126732;23;20446;-68
2023/03/25 03:46:27;;;;;;;0.30;0.30;;;6.00;99.90;;;;;;6126848;23;20495;-68
2023/03/25 03:48:56;;;;;;;0.30;0.30;;;6.10;99.90;;;;;;6126712;23;20538;-68
2023/03/25 03:51:30;;;;;;;0.60;0.60;;;6.10;99.90;;;;;;6126299;23;20176;-67
2023/03/25 03:54:01;;;;;;;0.40;0.40;;;6.10;99.90;;;;;;6126507;23;20176;-68
2023/03/25 03:56:40;;;;;;;0.30;0.30;;;6.10;99.90;;;;;;6127004;23;20139;-67
2023/03/25 03:59:14;;;;;;;0.30;0.30;;;6.20;99.90;;;;;;6126670;23;20164;-68
2023/03/25 04:01:45;;;;;;;0.40;0.40;;;6.30;99.90;;;;;;6126788;23;20210;-68
2023/03/25 04:04:16;;;;;;;0.40;0.40;;;6.20;99.90;;;;;;6126851;23;20448;-68
2023/03/25 04:07:06;;;;;;;0.30;0.30;;;6.30;99.90;;;;;;6126965;23;20146;-68
2023/03/25 04:09:39;;;;;;;0.40;0.40;;;6.40;99.90;;;;;;6126962;23;20162;-67
2023/03/25 04:12:15;;;;;;;0.40;0.40;;;6.50;99.90;;;;;;6126719;23;20137;-68
2023/03/25 04:14:42;;;;;;;0.30;0.30;;;6.50;99.90;;;;;;6126878;23;20200;-68
2023/03/25 04:17:08;;;;;;;0.30;0.30;;;6.40;99.90;;;;;;6126436;23;20151;-67
2023/03/25 04:19:33;;;;;;;0.40;0.40;;;6.40;99.90;;;;;;6126552;23;20149;-67
2023/03/25 04:22:01;;;;;;;0.30;0.30;;;6.40;99.90;;;;;;6126268;23;20600;-67
2023/03/25 04:24:30;;;;;;;0.30;0.30;;;6.50;99.90;;;;;;6126532;23;20176;-68
2023/03/25 04:27:03;;;;;;;0.40;0.40;;;6.50;99.90;;;;;;6126721;23;20154;-67
2023/03/25 04:29:32;;;;;;;0.63;0.60;;;6.60;99.90;;;;;;6126451;23;20169;-67
2023/03/25 04:32:01;;;;;;;0.40;0.40;;;6.70;99.90;;;;;;6126821;23;20159;-67
2023/03/25 04:34:28;;;;;;;0.32;0.32;;;6.70;99.90;;;;;;6126281;23;20539;-68
2023/03/25 04:36:54;;;;;;;0.38;0.38;;;6.70;99.90;;;;;;6126355;23;20486;-68
2023/03/25 04:39:21;;;;;;;0.30;0.30;;;6.70;99.90;;;;;;6126410;23;20170;-68
2023/03/25 04:41:48;;;;;;;0.40;0.40;;;6.60;99.90;;;;;;6126396;23;20485;-67
2023/03/25 04:44:15;;;;;;;0.40;0.40;;;6.40;99.90;;;;;;6126375;23;20193;-68
2023/03/25 04:46:41;;;;;;;0.35;0.35;;;6.40;99.90;;;;;;6100420;23;20186;-68
2023/03/25 04:49:17;;;;;;;0.30;0.30;;;6.20;99.90;;;;;;6126115;23;20176;-67
2023/03/25 04:51:44;;;;;;;0.50;0.50;;;5.80;99.90;;;;;;6126209;23;20360;-67
2023/03/25 04:54:10;;;;;;;0.40;0.40;;;5.80;99.90;;;;;;6126221;23;20176;-68
2023/03/25 04:56:38;;;;;;;0.30;0.30;;;5.60;99.90;;;;;;6100323;23;20157;-68
2023/03/25 04:59:03;;;;;;;0.40;0.40;;;5.40;99.90;;;;;;6126221;23;20268;-67
2023/03/25 05:01:29;;;;;;;0.40;0.40;;;5.00;99.90;;;;;;6126454;23;20180;-67
2023/03/25 05:04:05;;;;;;;0.70;0.70;;;4.90;99.90;;;;;;6128055;23;20176;-67
2023/03/25 05:06:40;;;;;;;0.40;0.40;;;4.70;99.90;;;;;;6128258;23;20688;-68
2023/03/25 05:09:09;;;;;;;0.38;0.38;;;4.70;99.90;;;;;;6128539;23;20167;-68
2023/03/25 05:11:38;;;;;;;0.40;0.40;;;4.60;99.90;;;;;;6128245;23;20147;-68
2023/03/25 05:14:04;;;;;;;0.30;0.30;;;4.60;99.90;;;;;;6127996;23;20179;-68
2023/03/25 05:16:30;;;;;;;0.40;0.40;;;4.60;99.90;;;;;;6128494;23;20182;-67
2023/03/25 05:18:56;;;;;;;0.30;0.30;;;4.60;99.90;;;;;;6128192;23;20168;-67
2023/03/25 05:21:22;;;;;;;0.53;0.53;;;4.70;99.90;;;;;;6127950;23;20372;-68
2023/03/25 05:23:47;;;;;;;0.30;0.30;;;5.00;99.90;;;;;;6128032;23;20141;-68
2023/03/25 05:26:13;;;;;;;0.40;0.40;;;5.10;99.90;;;;;;6102135;23;20164;-68
2023/03/25 05:28:40;;;;;;;0.40;0.40;;;5.20;99.90;;;;;;6127878;23;20579;-68
2023/03/25 05:31:08;;;;;;;0.30;0.30;;;5.30;99.90;;;;;;6128283;23;20161;-67
2023/03/25 05:33:41;;;;;;;0.30;0.30;;;5.30;99.90;;;;;;6127704;23;20234;-68
2023/03/25 05:36:15;;;;;;;0.40;0.40;;;5.40;99.90;;;;;;6128192;23;20216;-67
2023/03/25 05:38:40;;;;;;;0.38;0.38;;;5.40;99.90;;;;;;6128010;23;20168;-68
2023/03/25 05:41:15;;;;;;;0.37;0.37;;;5.40;99.90;;;;;;6127922;23;20148;-68
2023/03/25 05:43:45;;;;;;;0.40;0.40;;;5.50;99.90;;;;;;6127822;23;20139;-67
2023/03/25 05:46:11;;;;;;;0.40;0.40;;;5.50;99.90;;;;;;6128259;23;20137;-68
2023/03/25 05:48:36;;;;;;;0.40;0.40;;;5.60;99.90;;;;;;6128155;23;20237;-68
2023/03/25 05:51:05;;;;;;;0.37;0.37;;;5.50;99.90;;;;;;6128233;23;20233;-67
2023/03/25 05:53:31;;;;;;;0.40;0.40;;;5.60;99.90;;;;;;6127575;23;20175;-68
2023/03/25 05:55:59;;;;;;;0.35;0.35;;;5.70;99.90;;;;;;6128055;23;20232;-67
2023/03/25 05:58:25;;;;;;;0.40;0.40;;;5.80;99.90;;;;;;6127708;23;20169;-68
2023/03/25 06:00:51;;;;;;;0.30;0.30;;;5.90;99.90;;;;;;6127756;23;20232;-67
2023/03/25 06:03:19;;;;;;;1.05;1.05;;;6.00;99.90;;;;;;6127643;23;20857;-68
2023/03/25 06:05:46;;;;;;;0.40;0.40;;;6.10;99.90;;;;;;6127675;23;20194;-68
2023/03/25 06:08:12;;;;;;;0.40;0.40;;;6.00;99.90;;;;;;6127635;23;20239;-67
2023/03/25 06:10:38;;;;;;;0.40;0.40;;;5.90;99.90;;;;;;6127674;23;20179;-68
2023/03/25 06:13:04;;;;;;;0.30;0.30;;;5.90;99.90;;;;;;6127678;23;20422;-68
2023/03/25 06:15:32;;;;;;;0.40;0.40;;;5.90;99.90;;;;;;6127364;23;20745;-68
2023/03/25 06:17:58;;;;;;;0.38;0.38;;;5.90;99.90;;;;;;6127440;23;20722;-67
2023/03/25 06:20:25;;;;;;;0.40;0.40;;;6.10;99.90;;;;;;6127599;23;20175;-68
2023/03/25 06:22:50;;;;;;;0.50;0.50;;;6.00;99.90;;;;;;6127336;23;20160;-68
2023/03/25 06:25:19;;;;;;;0.40;0.40;;;5.90;99.90;;;;;;6101613;23;20614;-68
2023/03/25 06:27:48;;;;;;;0.40;0.40;;;5.90;99.90;;;;;;6101385;23;20404;-67
2023/03/25 06:30:16;;;;;;;0.55;0.55;;;5.80;99.90;;;;;;6127469;23;20149;-68
2023/03/25 06:32:42;;;;;;;0.40;0.40;;;5.70;99.90;;;;;;6127372;23;20153;-68
2023/03/25 06:35:10;;;;;;;0.50;0.50;;;5.80;99.90;;;;;;6127485;23;20145;-68
2023/03/25 06:37:37;;;;;;;0.40;0.40;;;5.80;99.90;;;;;;6127687;23;20640;-67
2023/03/25 06:40:04;;;;;;;0.40;0.40;;;6.00;99.90;;;;;;6127387;23;20150;-68
2023/03/25 06:42:30;;;;;;;0.60;0.60;;;6.00;99.90;;;;;;6127217;23;20161;-67
2023/03/25 06:44:56;;;;;;;0.73;0.73;;;6.10;99.90;;;;;;6127270;23;20489;-67
2023/03/25 06:47:22;;;;;;;0.40;0.40;;;6.00;99.90;;;;;;6127467;23;20150;-68
2023/03/25 06:49:48;;;;;;;0.40;0.40;;;5.90;99.90;;;;;;6127340;23;20161;-69
2023/03/25 06:52:14;;;;;;;0.40;0.40;;;5.90;99.90;;;;;;6127373;23;20486;-69
2023/03/25 06:54:40;;;;;;;0.40;0.40;;;6.30;99.90;;;;;;6127391;23;20727;-69
2023/03/25 06:57:06;;;;;;;0.40;0.40;;;6.30;99.90;;;;;;6127211;23;20150;-67
2023/03/25 06:59:32;;;;;;;0.40;0.40;;;6.30;99.90;;;;;;6127131;23;20176;-68
2023/03/25 07:01:58;;;;;;;0.40;0.40;;;6.40;99.90;;;;;;6127027;23;20427;-68
2023/03/25 07:04:24;;;;;;;2.23;1.03;;;6.50;99.90;;;;;;6127106;23;20156;-70
2023/03/25 07:06:49;;;;;;;0.30;0.30;;;6.50;99.90;;;;;;6127425;23;20386;-68
2023/03/25 07:09:15;;;;;;;0.40;0.40;;;6.60;99.90;;;;;;6126966;23;20245;-68
2023/03/25 07:11:41;;;;;;;0.60;0.60;;;6.70;99.90;;;;;;6126933;23;20165;-68
2023/03/25 07:14:07;;;;;;;0.40;0.40;;;6.80;99.90;;;;;;6127029;23;20421;-69
2023/03/25 07:16:32;;;;;;;0.30;0.30;;;6.80;99.90;;;;;;6126995;23;20146;-69
2023/03/25 07:18:58;;;;;;;0.30;0.30;;;6.70;99.90;;;;;;6127040;23;20604;-69
2023/03/25 07:21:25;;;;;;;0.30;0.30;;;6.50;99.90;;;;;;6126828;23;20154;-69
2023/03/25 07:23:50;;;;;;;0.40;0.40;;;6.30;99.90;;;;;;6126796;23;20522;-68
2023/03/25 07:26:16;;;;;;;0.30;0.30;;;6.20;99.90;;;;;;6127113;23;20152;-69
2023/03/25 07:28:41;;;;;;;0.40;0.40;;;6.10;99.90;;;;;;6126894;23;20170;-69
2023/03/25 07:31:09;;;;;;;0.30;0.30;;;6.20;99.90;;;;;;6127147;23;20164;-68
2023/03/25 07:33:35;;;;;;;0.95;0.88;;;6.30;99.90;;;;;;6126700;23;20181;-68
2023/03/25 07:36:01;;;;;;;0.35;0.35;;;6.50;99.90;;;;;;6126777;23;20151;-69
2023/03/25 07:38:26;;;;;;;1.60;0.60;;;6.40;99.90;;;;;;6100845;23;20193;-68
2023/03/25 07:40:52;;;;;;;0.30;0.30;;;6.50;99.90;;;;;;6126786;23;20158;-69
2023/03/25 07:43:18;;;;;;;0.40;0.40;;;6.50;99.90;;;;;;6126677;23;20152;-69
2023/03/25 07:45:43;;;;;;;0.40;0.40;;;6.50;99.90;;;;;;6126796;23;20170;-68
2023/03/25 07:48:13;;;;;;;0.40;0.40;;;6.50;99.90;;;;;;6126830;23;20174;-68
2023/03/25 07:50:39;;;;;;;0.50;0.50;;;6.60;99.90;;;;;;6126667;23;20150;-69
2023/03/25 07:53:05;;;;;;;0.30;0.30;;;6.70;99.90;;;;;;6126550;23;20185;-69
2023/03/25 07:55:31;;;;;;;0.60;0.60;;;6.80;99.90;;;;;;6126653;23;20226;-69
2023/03/25 07:57:57;;;;;;;2.50;1.50;;;6.90;99.90;;;;;;6126759;23;20171;-69
2023/03/25 08:00:23;;;;;;;0.40;0.40;;;6.80;99.90;;;;;;6126631;23;20171;-69
2023/03/25 08:02:49;;;;;;;0.40;0.40;;;6.60;99.90;;;;;;6126456;23;20317;-69
2023/03/25 08:05:20;;;;;;;0.70;0.70;;;6.30;99.90;;;;;;6126582;23;20382;-68
2023/03/25 08:07:46;;;;;;;0.57;0.57;;;6.40;99.90;;;;;;6126930;23;20253;-69
2023/03/25 08:10:14;;;;;;;0.43;0.43;;;6.60;99.90;;;;;;6126865;23;20203;-69
2023/03/25 08:12:40;;;;;;;0.43;0.43;;;6.60;99.90;;;;;;6126384;23;20150;-68
2023/03/25 08:15:06;;;;;;;0.35;0.35;;;6.80;99.90;;;;;;6126404;23;20510;-69
2023/03/25 08:17:32;;;;;;;0.40;0.40;;;6.60;99.90;;;;;;6126511;23;20208;-68
2023/03/25 08:19:59;;;;;;;0.40;0.40;;;6.60;99.90;;;;;;6126483;23;20230;-68
2023/03/25 08:22:26;;;;;;;0.43;0.43;;;6.60;99.90;;;;;;6126349;23;20569;-69
2023/03/25 08:24:52;;;;;;;0.40;0.40;;;6.50;99.90;;;;;;6126496;23;20159;-69
2023/03/25 08:27:17;;;;;;;0.40;0.40;;;6.50;99.90;;;;;;6126577;23;20543;-68
2023/03/25 08:29:53;;;;;;;0.40;0.40;;;6.50;99.90;;;;;;6126425;23;20833;-68
2023/03/25 08:32:19;;;;;;;0.30;0.30;;;6.50;99.90;;;;;;6126335;23;20140;-68
2023/03/25 08:34:45;;;;;;;0.85;0.85;;;6.40;99.90;;;;;;6126355;23;20224;-69
2023/03/25 08:37:11;;;;;;;0.40;0.40;;;6.30;99.90;;;;;;6126068;23;20147;-69
2023/03/25 08:39:38;;;;;;;1.70;1.00;;;6.30;99.90;;;;;;6126450;23;20219;-68
2023/03/25 08:42:08;;;;;;;0.40;0.40;;;6.40;99.90;;;;;;6126331;23;20149;-69
2023/03/25 08:44:34;;;;;;;1.10;1.10;;;6.50;99.90;;;;;;6126382;23;20468;-69
2023/03/25 08:47:00;;;;;;;0.30;0.30;;;6.60;99.90;;;;;;6126432;23;20155;-69
2023/03/25 08:49:26;;;;;;;0.40;0.40;;;6.70;99.90;;;;;;6126781;23;20181;-69
2023/03/25 08:51:51;;;;;;;1.23;0.80;;;6.80;99.90;;;;;;6126166;23;20953;-69
2023/03/25 08:54:17;;;;;;;0.50;0.50;;;7.00;99.90;;;;;;6126311;23;20224;-69
2023/03/25 08:56:42;;;;;;;0.50;0.40;;;7.10;99.90;;;;;;6126317;23;20151;-69
2023/03/25 08:59:08;;;;;;;0.43;0.43;;;7.20;99.90;;;;;;6126267;23;20173;-69
2023/03/25 09:01:34;;;;;;;0.30;0.30;;;7.10;99.90;;;;;;6126326;23;20156;-69
2023/03/25 09:03:59;;;;;;;0.33;0.33;;;7.00;99.90;;;;;;6100539;23;20609;-69
2023/03/25 09:06:25;;;;;;;0.40;0.40;;;6.90;99.90;;;;;;6126424;23;20178;-69
2023/03/25 09:08:51;;;;;;;0.40;0.40;;;6.80;99.90;;;;;;6126209;23;20173;-69
2023/03/25 09:11:17;;;;;;;0.40;0.40;;;6.70;99.90;;;;;;6126413;23;20150;-69
2023/03/25 09:13:43;;;;;;;0.50;0.50;;;6.60;99.90;;;;;;6125981;23;20180;-69
2023/03/25 09:16:09;;;;;;;0.40;0.40;;;6.40;99.90;;;;;;6126285;23;20152;-69
2023/03/25 09:18:35;;;;;;;0.40;0.40;;;6.40;99.90;;;;;;6126171;23;20169;-68
2023/03/25 09:21:01;;;;;;;0.55;0.55;;;6.20;99.90;;;;;;6126191;23;20146;-68
2023/03/25 09:23:27;;;;;;;0.30;0.30;;;6.10;99.80;;;;;;6125987;23;20515;-69
2023/03/25 09:25:53;;;;;;;0.40;0.40;;;6.00;99.90;;;;;;6126194;23;20187;-69
2023/03/25 09:28:19;;;;;;;0.40;0.40;;;6.00;99.90;;;;;;6126233;23;20258;-69
2023/03/25 09:30:45;;;;;;;0.40;0.40;;;5.90;99.90;;;;;;6126474;23;20184;-69
2023/03/25 09:33:11;;;;;;;0.40;0.40;;;6.00;99.90;;;;;;6126068;23;20179;-68
2023/03/25 09:35:38;;;;;;;0.40;0.40;;;5.90;99.90;;;;;;6126176;23;20150;-69
2023/03/25 09:38:04;;;;;;;0.40;0.40;;;5.90;99.90;;;;;;6126307;23;20246;-69
2023/03/25 09:40:30;;;;;;;0.30;0.30;;;5.70;99.90;;;;;;6126103;23;20146;-69
2023/03/25 09:43:17;;;;;;;0.40;0.40;;;5.60;99.90;;;;;;6100033;23;20758;-69
2023/03/25 09:45:48;;;;;;;0.68;0.68;;;5.50;99.90;;;;;;6126125;23;20556;-68
2023/03/25 09:48:32;;;;;;;0.40;0.40;;;5.50;99.90;;;;;;6100125;23;20615;-69
2023/03/25 09:51:05;;;;;;;0.40;0.40;;;5.50;99.90;;;;;;6101982;23;20228;-68
2023/03/25 09:53:57;;;;;;;0.40;0.40;;;5.40;99.90;;;;;;6127528;23;20203;-69
2023/03/25 09:56:27;;;;;;;0.55;0.50;;;5.30;99.90;;;;;;6063930;23;20153;-69
2023/03/25 09:59:33;;;;;;;0.40;0.40;;;5.20;99.90;;;;;;6101712;23;20538;-69
2023/03/25 10:02:08;;;;;;;0.40;0.40;;;5.20;99.90;;;;;;5982041;24;20169;-69
2023/03/25 10:04:45;;;;;;;0.40;0.40;;;5.30;99.90;;;;;;6106737;23;20214;-69
2023/03/25 10:07:16;;;;;;;0.40;0.40;;;5.40;99.90;;;;;;6127803;23;20137;-68
2023/03/25 10:10:03;;;;;;;0.40;0.40;;;5.40;99.90;;;;;;6127690;23;20150;-69
2023/03/25 10:12:36;;;;;;;0.50;0.50;;;5.40;99.90;;;;;;6127487;23;20482;-69
2023/03/25 10:15:10;;;;;;;2.50;1.02;;;5.50;99.90;;;;;;6127511;23;20178;-69
2023/03/25 10:18:00;;;;;;;0.30;0.30;;;5.70;99.90;;;;;;6127690;23;20165;-69
2023/03/25 10:20:44;;;;;;;0.30;0.30;;;5.70;99.90;;;;;;6127580;23;20263;-69
2023/03/25 10:23:39;;;;;;;0.38;0.38;;;5.60;99.90;;;;;;6127315;23;20169;-68
2023/03/25 10:26:20;;;;;;;0.30;0.30;;;5.70;99.90;;;;;;6101539;23;20564;-69
2023/03/25 10:28:57;;;;;;;0.30;0.30;;;5.80;99.90;;;;;;6127400;23;20172;-69
2023/03/25 10:31:25;;;;;;;0.98;0.98;;;5.60;99.90;;;;;;6101514;23;20618;-69
2023/03/25 10:33:55;;;;;;;0.40;0.40;;;5.60;99.90;;;;;;6127146;23;20172;-69
2023/03/25 10:36:33;;;;;;;0.30;0.30;;;5.60;99.90;;;;;;6127396;23;20229;-69
2023/03/25 10:39:03;;;;;;;0.40;0.40;;;5.90;99.90;;;;;;6127286;23;20170;-69
2023/03/25 10:41:38;;;;;;;0.52;0.52;;;6.10;99.90;;;;;;6128001;23;20221;-69
2023/03/25 10:44:10;;;;;;;0.30;0.30;;;6.10;99.90;;;;;;6127230;23;20149;-69
2023/03/25 10:46:48;;;;;;;0.40;0.40;;;6.20;99.90;;;;;;6127603;23;20176;-68
2023/03/25 10:49:18;;;;;;;0.50;0.50;;;6.30;99.90;;;;;;6127299;23;20176;-69
2023/03/25 10:51:46;;;;;;;0.30;0.30;;;6.40;99.90;;;;;;6127110;23;20173;-69
2023/03/25 10:54:14;;;;;;;1.05;1.05;;;6.60;99.90;;;;;;6127079;23;20185;-69
2023/03/25 10:56:45;;;;;;;0.30;0.30;;;6.80;99.90;;;;;;6101056;23;20153;-69
2023/03/25 10:59:26;;;;;;;0.40;0.40;;;6.70;99.90;;;;;;6127050;23;20193;-69
2023/03/25 11:01:53;;;;;;;0.40;0.40;;;6.60;99.90;;;;;;6126986;23;20209;-69
2023/03/25 11:04:22;;;;;;;0.38;0.38;;;6.80;99.90;;;;;;6127115;23;20158;-69
2023/03/25 11:06:58;;;;;;;0.40;0.40;;;7.10;99.90;;;;;;6127377;23;20155;-69
2023/03/25 11:09:29;;;;;;;1.00;0.82;;;7.30;99.90;;;;;;6127235;23;20169;-69
2023/03/25 11:11:58;;;;;;;0.30;0.30;;;7.70;99.90;;;;;;6127024;23;20189;-69
2023/03/25 11:14:26;;;;;;;0.30;0.30;;;8.10;99.90;;;;;;6126976;23;20181;-68
2023/03/25 11:17:02;;;;;;;0.30;0.30;;;8.30;99.90;;;;;;6126994;23;20179;-70
2023/03/25 11:19:46;;;;;;;0.30;0.30;;;8.60;99.90;;;;;;6127286;23;20168;-69
2023/03/25 11:22:23;;;;;;;0.30;0.30;;;8.70;99.90;;;;;;6126901;23;20607;-70
2023/03/25 11:24:56;;;;;;;0.40;0.40;;;8.80;99.90;;;;;;6127023;23;20144;-69
2023/03/25 11:27:25;;;;;;;0.40;0.40;;;8.80;99.90;;;;;;6127199;23;20441;-69
2023/03/25 11:29:53;;;;;;;0.30;0.30;;;8.60;99.90;;;;;;6126951;23;20662;-68
2023/03/25 11:32:35;;;;;;;0.40;0.40;;;8.70;99.90;;;;;;6126726;23;20160;-69
2023/03/25 11:35:13;;;;;;;0.70;0.70;;;8.90;99.90;;;;;;6126810;23;20228;-69
2023/03/25 11:37:45;;;;;;;0.30;0.30;;;8.70;99.90;;;;;;6126801;23;20234;-70
2023/03/25 11:40:16;;;;;;;0.40;0.40;;;8.70;99.90;;;;;;6126803;23;20511;-70
2023/03/25 11:42:48;;;;;;;0.40;0.40;;;8.70;99.90;;;;;;6126650;23;20174;-69
2023/03/25 11:45:34;;;;;;;0.40;0.40;;;8.60;99.90;;;;;;6126849;23;20132;-69
2023/03/25 11:48:08;;;;;;;0.60;0.60;;;8.70;99.90;;;;;;6126711;23;20195;-69
2023/03/25 11:50:34;;;;;;;0.65;0.65;;;9.00;99.90;;;;;;6126914;23;20567;-69
2023/03/25 11:53:02;;;;;;;0.30;0.30;;;9.30;99.90;;;;;;6126482;23;20226;-70
2023/03/25 11:55:43;;;;;;;0.60;0.60;;;9.50;99.90;;;;;;6126700;23;20149;-68
2023/03/25 11:58:21;;;;;;;0.40;0.40;;;9.80;99.90;;;;;;6126694;23;20227;-69
2023/03/25 12:00:58;;;;;;;0.50;0.50;;;9.80;99.90;;;;;;6126577;23;20152;-70
2023/03/25 12:03:29;;;;;;;0.40;0.40;;;9.60;99.90;;;;;;6126602;23;20178;-70
2023/03/25 12:06:03;;;;;;;0.40;0.40;;;9.30;99.90;;;;;;6126674;23;20200;-69
2023/03/25 12:08:55;;;;;;;0.35;0.35;;;9.10;99.90;;;;;;6126641;23;20206;-70
2023/03/25 12:11:56;;;;;;;0.40;0.40;;;9.00;99.90;;;;;;6126659;23;20508;-70
2023/03/25 12:14:56;;;;;;;19.10;1.45;;;9.00;99.90;;;;;;6120052;23;20183;-69
2023/03/25 12:17:37;;;;;;;0.50;0.50;;;8.80;99.90;;;;;;6126454;23;20623;-68
2023/03/25 12:20:18;;;;;;;1.70;1.60;;;8.70;99.90;;;;;;6126431;23;20139;-70
2023/03/25 12:23:14;;;;;;;0.93;0.68;;;8.70;99.90;;;;;;6126215;23;20168;-69
2023/03/25 12:25:57;;;;;;;2.53;2.38;;;8.90;99.90;;;;;;6126295;23;20152;-69
2023/03/25 12:28:41;;;;;;;0.98;0.98;;;9.20;99.90;;;;;;6100486;23;20184;-69
2023/03/25 12:31:11;;;;;;;0.60;0.60;;;9.20;99.90;;;;;;6126416;23;20156;-70
2023/03/25 12:33:57;;;;;;;0.85;0.85;;;9.50;99.90;;;;;;6126189;23;20164;-70
2023/03/25 12:36:40;;;;;;;0.60;0.60;;;9.80;99.90;;;;;;6127079;23;20193;-69
2023/03/25 12:39:22;;;;;;;0.60;0.60;;;10.00;99.90;;;;;;6126364;23;20484;-70
2023/03/25 12:42:12;;;;;;;0.50;0.50;;;10.00;99.30;;;;;;6126241;23;20223;-70
2023/03/25 12:44:49;;;;;;;0.30;0.30;;;9.90;99.50;;;;;;6100450;23;20226;-70
2023/03/25 12:47:25;;;;;;;0.40;0.40;;;9.70;99.60;;;;;;6126285;23;20170;-70
2023/03/25 12:50:07;;;;;;;0.30;0.30;;;9.50;99.90;;;;;;6126628;23;20140;-70
2023/03/25 12:52:38;;;;;;;1.02;0.93;;;9.70;99.90;;;;;;6126145;23;20133;-70
2023/03/25 12:55:28;;;;;;;0.30;0.30;;;9.80;99.90;;;;;;6126233;23;20172;-70
2023/03/25 12:57:59;;;;;;;0.57;0.47;;;9.70;99.90;;;;;;6126263;23;20174;-68
2023/03/25 13:00:40;;;;;;;0.40;0.40;;;9.40;99.90;;;;;;6126382;23;20192;-69
2023/03/25 13:03:18;;;;;;;0.43;0.43;;;9.20;99.90;;;;;;6126141;23;20128;-70
2023/03/25 13:05:53;;;;;;;0.30;0.30;;;9.20;99.90;;;;;;6126457;23;20173;-69
2023/03/25 13:08:31;;;;;;;0.88;0.50;;;9.30;99.90;;;;;;6126412;23;20178;-70
2023/03/25 13:11:08;;;;;;;0.40;0.40;;;9.40;99.90;;;;;;6126410;23;20147;-70
2023/03/25 13:13:36;;;;;;;0.57;0.57;;;9.60;99.90;;;;;;6126042;23;20164;-70
2023/03/25 13:16:10;;;;;;;1.08;1.08;;;9.70;99.90;;;;;;6126262;23;20149;-69
2023/03/25 13:18:37;;;;;;;0.80;0.80;;;10.00;99.60;;;;;;6126244;23;20171;-69